Time;durP1;ratioP1;P1;durP2;ratioP2;P2;SDS_P1;SDS_P2;PMS_P1;PMS_P2;Temp;Humidity;BMP_temperature;BMP_pressure;BME280_temperature;BME280_humidity;BME280_pressure;Samples;Min_cycle;Max_cycle;Signal;HPM_P1;HPM_P2
2022/11/16 00:00:16;;;;;;;;;;;19.40;99.90;;;;;;5005706;28;20335;-59
2022/11/16 00:02:43;;;;;;;;;;;19.40;99.90;;;;;;5018961;28;19932;-58
2022/11/16 00:05:10;;;;;;;;;;;19.40;99.90;;;;;;5009559;28;19929;-59
2022/11/16 00:07:37;;;;;;;;;;;19.30;99.90;;;;;;5013567;28;19932;-59
2022/11/16 00:10:04;;;;;;;;;;;19.30;99.90;;;;;;5009868;28;20271;-60
2022/11/16 00:12:31;;;;;;;;;;;19.30;99.90;;;;;;5012843;28;19934;-58
2022/11/16 00:14:58;;;;;;;;;;;19.30;99.90;;;;;;5019292;28;19940;-62
2022/11/16 00:17:25;;;;;;;;;;;19.30;99.90;;;;;;5005196;28;19936;-60
2022/11/16 00:19:52;;;;;;;;;;;19.30;99.90;;;;;;5010293;28;19929;-60
2022/11/16 00:22:20;;;;;;;;;;;19.30;99.90;;;;;;5009058;28;19929;-59
2022/11/16 00:24:47;;;;;;;;;;;19.30;99.90;;;;;;5004610;28;19929;-57
2022/11/16 00:27:14;;;;;;;;;;;19.30;99.90;;;;;;5003484;28;19929;-59
2022/11/16 00:29:41;;;;;;;;;;;19.30;99.90;;;;;;5001304;28;19933;-60
2022/11/16 00:32:09;;;;;;;;;;;19.30;99.90;;;;;;5007994;28;19926;-58
2022/11/16 00:34:36;;;;;;;;;;;19.30;99.90;;;;;;5024063;28;19929;-58
2022/11/16 00:37:03;;;;;;;;;;;19.30;99.90;;;;;;5004879;28;19932;-59
2022/11/16 00:39:30;;;;;;;;;;;19.20;99.90;;;;;;4999805;28;19930;-59
2022/11/16 00:41:57;;;;;;;;;;;19.20;99.90;;;;;;5002333;28;19925;-60
2022/11/16 00:44:24;;;;;;;;;;;19.30;99.90;;;;;;4996732;28;19930;-59
2022/11/16 00:46:51;;;;;;;;;;;19.30;99.90;;;;;;5011100;28;19926;-56
2022/11/16 00:49:18;;;;;;;;;;;19.20;99.90;;;;;;5033612;28;19932;-58
2022/11/16 00:51:45;;;;;;;;;;;19.20;99.90;;;;;;5003210;28;20553;-57
2022/11/16 00:54:13;;;;;;;;;;;19.20;99.90;;;;;;5003981;28;19933;-57
2022/11/16 00:56:40;;;;;;;;;;;19.20;99.90;;;;;;5007276;28;19937;-57
2022/11/16 00:59:07;;;;;;;;;;;19.20;99.90;;;;;;5002359;28;19936;-57
2022/11/16 01:01:34;;;;;;;;;;;19.20;99.90;;;;;;4996075;28;19930;-57
2022/11/16 01:04:01;;;;;;;;;;;19.10;99.90;;;;;;5008167;28;19930;-59
2022/11/16 01:06:28;;;;;;;;;;;19.20;99.90;;;;;;5000228;28;19925;-59
2022/11/16 01:08:56;;;;;;;;;;;19.10;99.90;;;;;;5002300;28;19930;-60
2022/11/16 01:12:09;;;;;;;;;;;19.20;99.90;;;;;;5000521;28;19932;-56
2022/11/16 01:14:11;;;;;;;;;;;19.10;99.90;;;;;;5002864;28;20364;-61
2022/11/16 01:16:38;;;;;;;;;;;19.20;99.90;;;;;;5007600;28;20308;-59
2022/11/16 01:19:05;;;;;;;;;;;19.10;99.90;;;;;;4996792;28;19930;-59
2022/11/16 01:21:32;;;;;;;;;;;19.10;99.90;;;;;;4998988;28;19926;-60
2022/11/16 01:23:59;;;;;;;;;;;19.10;99.90;;;;;;5000485;28;20329;-60
2022/11/16 01:26:26;;;;;;;;;;;19.10;99.90;;;;;;5022977;28;20412;-58
2022/11/16 01:28:54;;;;;;;;;;;19.10;99.90;;;;;;5008461;28;19925;-58
2022/11/16 01:31:21;;;;;;;;;;;19.10;99.90;;;;;;5003295;28;19926;-59
2022/11/16 01:33:50;;;;;;;;;;;19.10;99.90;;;;;;5007169;28;20405;-60
2022/11/16 01:36:26;;;;;;;;;;;19.00;99.90;;;;;;5015686;28;19937;-60
2022/11/16 01:38:55;;;;;;;;;;;19.10;99.90;;;;;;4991755;28;20266;-59
2022/11/16 01:41:26;;;;;;;;;;;19.10;99.90;;;;;;5025227;28;20112;-60
2022/11/16 01:44:02;;;;;;;;;;;19.10;99.90;;;;;;4997732;28;19926;-60
2022/11/16 01:46:52;;;;;;;;;;;19.00;99.90;;;;;;5002613;28;20405;-60
2022/11/16 01:49:21;;;;;;;;;;;19.00;99.90;;;;;;5004413;28;20388;-59
2022/11/16 01:51:52;;;;;;;;;;;19.00;99.90;;;;;;4996175;28;19937;-60
2022/11/16 01:54:19;;;;;;;;;;;19.00;99.90;;;;;;5003498;28;20056;-59
2022/11/16 01:56:54;;;;;;;;;;;19.10;99.90;;;;;;4988245;28;19930;-60
2022/11/16 01:59:35;;;;;;;;;;;19.00;99.90;;;;;;4994818;28;19930;-58
2022/11/16 02:02:03;;;;;;;;;;;19.00;99.90;;;;;;5001175;28;19930;-60
2022/11/16 02:04:32;;;;;;;;;;;19.00;99.90;;;;;;5003534;28;19933;-59
2022/11/16 02:07:05;;;;;;;;;;;19.00;99.90;;;;;;5003687;28;20389;-59
2022/11/16 02:12:19;;;;;;;;;;;19.00;99.90;;;;;;5026350;28;19934;-58
2022/11/16 02:15:06;;;;;;;;;;;18.90;99.90;;;;;;5006519;28;19926;-60
2022/11/16 02:17:40;;;;;;;;;;;18.90;99.90;;;;;;4996426;28;19930;-56
2022/11/16 02:20:12;;;;;;;;;;;18.90;99.90;;;;;;5009978;28;19972;-60
2022/11/16 02:22:39;;;;;;;;;;;18.90;99.90;;;;;;5013082;28;19936;-58
2022/11/16 02:25:22;;;;;;;;;;;18.90;99.90;;;;;;4997268;28;20313;-59
2022/11/16 02:27:55;;;;;;;;;;;18.90;99.90;;;;;;5006678;28;20432;-59
2022/11/16 02:30:22;;;;;;;;;;;18.90;99.90;;;;;;5006362;28;19937;-56
2022/11/16 02:33:06;;;;;;;;;;;18.90;99.90;;;;;;4998163;28;19930;-58
2022/11/16 02:35:42;;;;;;;;;;;18.90;99.90;;;;;;5004283;28;19956;-54
2022/11/16 02:38:29;;;;;;;;;;;18.90;99.90;;;;;;5007826;28;19932;-59
2022/11/16 02:41:09;;;;;;;;;;;18.90;99.90;;;;;;5004278;28;19937;-55
2022/11/16 02:43:40;;;;;;;;;;;18.90;99.90;;;;;;4999213;28;19936;-59
2022/11/16 02:46:09;;;;;;;;;;;18.90;99.90;;;;;;5000389;28;19926;-58
2022/11/16 02:48:40;;;;;;;;;;;18.90;99.90;;;;;;4990627;28;19930;-59
2022/11/16 02:51:08;;;;;;;;;;;18.90;99.90;;;;;;5002883;28;19925;-61
2022/11/16 02:53:37;;;;;;;;;;;18.90;99.90;;;;;;4998539;28;19929;-58
2022/11/16 02:56:05;;;;;;;;;;;18.90;99.90;;;;;;4996769;28;19929;-59
2022/11/16 02:58:32;;;;;;;;;;;18.90;99.90;;;;;;5007003;28;20309;-56
2022/11/16 03:01:02;;;;;;;;;;;18.90;99.90;;;;;;4998919;28;20460;-60
2022/11/16 03:03:33;;;;;;;;;;;18.90;99.90;;;;;;4997851;28;20632;-61
2022/11/16 03:06:02;;;;;;;;;;;18.90;99.90;;;;;;5007760;28;19934;-60
2022/11/16 03:08:37;;;;;;;;;;;18.90;99.90;;;;;;5022122;28;19933;-59
2022/11/16 03:13:57;;;;;;;;;;;18.90;99.90;;;;;;5014500;28;19937;-59
2022/11/16 03:16:26;;;;;;;;;;;18.80;99.90;;;;;;5000102;28;19936;-60
2022/11/16 03:18:54;;;;;;;;;;;18.90;99.90;;;;;;5000459;28;19933;-59
2022/11/16 03:21:27;;;;;;;;;;;18.80;99.90;;;;;;4998219;28;19932;-56
2022/11/16 03:23:54;;;;;;;;;;;18.90;99.90;;;;;;4994455;28;19933;-60
2022/11/16 03:26:23;;;;;;;;;;;18.90;99.90;;;;;;5004267;28;19925;-57
2022/11/16 03:28:58;;;;;;;;;;;18.90;99.90;;;;;;4989980;28;19941;-58
2022/11/16 03:31:37;;;;;;;;;;;18.90;99.90;;;;;;5004218;28;19929;-59
2022/11/16 03:34:09;;;;;;;;;;;18.90;99.90;;;;;;5002571;28;20357;-58
2022/11/16 03:36:39;;;;;;;;;;;18.90;99.90;;;;;;5006203;28;19930;-56
2022/11/16 03:39:11;;;;;;;;;;;18.90;99.90;;;;;;5000333;28;19937;-59
2022/11/16 03:41:40;;;;;;;;;;;18.90;99.90;;;;;;4990567;28;19932;-59
2022/11/16 03:44:09;;;;;;;;;;;18.90;99.90;;;;;;4999744;28;19925;-64
2022/11/16 03:46:38;;;;;;;;;;;18.90;99.90;;;;;;5003293;28;20255;-61
2022/11/16 03:49:06;;;;;;;;;;;18.90;99.90;;;;;;5009491;28;19925;-59
2022/11/16 03:51:36;;;;;;;;;;;18.90;99.90;;;;;;4995069;28;19937;-59
2022/11/16 03:54:03;;;;;;;;;;;18.90;99.90;;;;;;4992193;28;19933;-60
2022/11/16 03:56:31;;;;;;;;;;;18.90;99.90;;;;;;4990555;28;19926;-59
2022/11/16 03:58:58;;;;;;;;;;;18.80;99.90;;;;;;4999065;28;20017;-61
2022/11/16 04:01:28;;;;;;;;;;;18.80;99.90;;;;;;5025090;28;20013;-59
2022/11/16 04:03:55;;;;;;;;;;;18.90;99.90;;;;;;5009754;28;20412;-58
2022/11/16 04:25:53;;;;;;;;;;;18.80;99.90;;;;;;5001093;28;20305;-59
2022/11/16 04:28:25;;;;;;;;;;;18.70;99.90;;;;;;5005040;28;19930;-60
2022/11/16 04:39:37;;;;;;;;;;;18.70;99.90;;;;;;5020235;28;19929;-59
2022/11/16 04:42:17;;;;;;;;;;;18.70;99.90;;;;;;5022528;28;19937;-60
2022/11/16 04:47:43;;;;;;;;;;;18.70;99.90;;;;;;5004760;28;19936;-58
2022/11/16 04:50:11;;;;;;;;;;;18.80;99.90;;;;;;5020909;28;19934;-60
2022/11/16 04:52:39;;;;;;;;;;;18.80;99.90;;;;;;5022938;28;19929;-56
2022/11/16 04:55:09;;;;;;;;;;;18.90;99.90;;;;;;5019099;28;19926;-58
2022/11/16 04:57:37;;;;;;;;;;;18.90;99.90;;;;;;5001224;28;19937;-58
2022/11/16 05:00:05;;;;;;;;;;;18.90;99.90;;;;;;5005849;28;19929;-60
2022/11/16 05:02:34;;;;;;;;;;;19.00;99.90;;;;;;5004980;28;19953;-58
2022/11/16 05:05:01;;;;;;;;;;;19.00;99.90;;;;;;4996709;28;19934;-58
2022/11/16 05:07:29;;;;;;;;;;;19.10;99.90;;;;;;4998701;28;19926;-56
2022/11/16 05:10:09;;;;;;;;;;;19.10;99.90;;;;;;5022805;28;20393;-55
2022/11/16 05:12:37;;;;;;;;;;;19.10;99.90;;;;;;5014306;28;19936;-53
2022/11/16 05:15:07;;;;;;;;;;;19.20;99.90;;;;;;5006033;28;20401;-60
2022/11/16 05:17:34;;;;;;;;;;;19.20;99.90;;;;;;4997684;28;19940;-59
2022/11/16 05:22:56;;;;;;;;;;;19.20;99.90;;;;;;5010458;28;19929;-60
2022/11/16 05:25:27;;;;;;;;;;;19.20;99.90;;;;;;5015227;28;19926;-57
2022/11/16 05:28:02;;;;;;;;;;;19.20;99.90;;;;;;5001945;28;19926;-58
2022/11/16 05:30:33;;;;;;;;;;;19.20;99.90;;;;;;5017121;28;19926;-60
2022/11/16 05:33:02;;;;;;;;;;;19.20;99.90;;;;;;5007640;28;19925;-58
2022/11/16 05:35:32;;;;;;;;;;;19.30;99.90;;;;;;4989656;28;19926;-59
2022/11/16 05:38:00;;;;;;;;;;;19.30;99.90;;;;;;4997660;28;19938;-59
2022/11/16 05:40:31;;;;;;;;;;;19.20;99.90;;;;;;5007307;28;20292;-59
2022/11/16 05:42:59;;;;;;;;;;;19.30;99.90;;;;;;4999980;28;19933;-58
2022/11/16 05:45:29;;;;;;;;;;;19.30;99.90;;;;;;5016845;28;19930;-59
2022/11/16 05:47:58;;;;;;;;;;;19.30;99.90;;;;;;5001174;28;19936;-59
2022/11/16 05:50:26;;;;;;;;;;;19.30;99.90;;;;;;5019108;28;20460;-60
2022/11/16 05:53:05;;;;;;;;;;;19.20;99.90;;;;;;4988718;28;19937;-59
2022/11/16 05:55:34;;;;;;;;;;;19.30;99.90;;;;;;4997813;28;19930;-58
2022/11/16 05:58:01;;;;;;;;;;;19.20;99.90;;;;;;5019485;28;19933;-58
2022/11/16 06:00:28;;;;;;;;;;;19.20;99.90;;;;;;5002882;28;19930;-61
2022/11/16 06:02:55;;;;;;;;;;;19.20;99.90;;;;;;4997751;28;19936;-60
2022/11/16 06:05:27;;;;;;;;;;;19.20;99.90;;;;;;5021771;28;20661;-60
2022/11/16 06:07:56;;;;;;;;;;;19.40;99.90;;;;;;5007007;28;19932;-61
2022/11/16 06:10:23;;;;;;;;;;;19.40;99.90;;;;;;4995155;28;19933;-59
2022/11/16 06:12:52;;;;;;;;;;;19.60;99.90;;;;;;4994020;28;19936;-58
2022/11/16 06:15:19;;;;;;;;;;;19.60;99.90;;;;;;4996712;28;19937;-58
2022/11/16 06:17:47;;;;;;;;;;;19.80;99.90;;;;;;5023328;28;19925;-57
2022/11/16 06:20:15;;;;;;;;;;;20.00;99.90;;;;;;4999294;28;19936;-60
2022/11/16 06:22:43;;;;;;;;;;;20.20;99.90;;;;;;4988898;28;19937;-60
2022/11/16 06:25:11;;;;;;;;;;;20.40;99.90;;;;;;5020555;28;19993;-62
2022/11/16 06:27:41;;;;;;;;;;;20.50;99.90;;;;;;5016764;28;20317;-62
2022/11/16 06:30:12;;;;;;;;;;;20.60;99.90;;;;;;4992294;28;19929;-56
2022/11/16 06:32:39;;;;;;;;;;;20.60;99.90;;;;;;5011645;28;20287;-62
2022/11/16 06:35:07;;;;;;;;;;;20.70;99.90;;;;;;5007266;28;20424;-62
2022/11/16 06:37:35;;;;;;;;;;;20.70;99.90;;;;;;4993459;28;19940;-60
2022/11/16 06:40:02;;;;;;;;;;;20.70;99.90;;;;;;4998672;28;19925;-62
2022/11/16 06:42:34;;;;;;;;;;;20.70;99.90;;;;;;5021690;28;19934;-58
2022/11/16 06:45:01;;;;;;;;;;;20.70;99.90;;;;;;4996506;28;20361;-60
2022/11/16 06:47:34;;;;;;;;;;;20.60;99.90;;;;;;4998165;28;19929;-58
2022/11/16 06:50:04;;;;;;;;;;;20.60;99.90;;;;;;5022078;28;19937;-59
2022/11/16 06:52:32;;;;;;;;;;;20.60;99.90;;;;;;5003193;28;19930;-58
2022/11/16 06:55:00;;;;;;;;;;;20.60;99.90;;;;;;5022912;28;19929;-60
2022/11/16 06:57:32;;;;;;;;;;;20.50;99.90;;;;;;4991470;28;20318;-61
2022/11/16 06:59:59;;;;;;;;;;;20.50;99.90;;;;;;5003931;28;20401;-59
2022/11/16 07:02:26;;;;;;;;;;;20.50;99.90;;;;;;5003414;28;19926;-63
2022/11/16 07:04:54;;;;;;;;;;;20.40;99.90;;;;;;5002347;28;19925;-55
2022/11/16 07:07:28;;;;;;;;;;;20.50;99.90;;;;;;4999156;28;19933;-61
2022/11/16 07:09:55;;;;;;;;;;;20.50;99.90;;;;;;5020075;28;20173;-66
2022/11/16 07:12:24;;;;;;;;;;;20.40;99.90;;;;;;5005560;28;19937;-64
2022/11/16 07:14:51;;;;;;;;;;;20.40;99.90;;;;;;4997925;28;19930;-64
2022/11/16 07:17:18;;;;;;;;;;;20.30;99.90;;;;;;5006273;28;19933;-63
2022/11/16 07:19:46;;;;;;;;;;;20.30;99.90;;;;;;5004005;28;20306;-64
2022/11/16 07:22:13;;;;;;;;;;;20.30;99.90;;;;;;4995444;28;20489;-63
2022/11/16 07:24:41;;;;;;;;;;;20.30;99.90;;;;;;5002435;28;19957;-62
2022/11/16 07:27:10;;;;;;;;;;;20.30;99.90;;;;;;5003637;28;19941;-63
2022/11/16 07:29:42;;;;;;;;;;;20.20;99.90;;;;;;5009632;28;19936;-63
2022/11/16 07:32:23;;;;;;;;;;;20.20;99.90;;;;;;4986725;28;19933;-61
2022/11/16 07:35:11;;;;;;;;;;;20.20;99.90;;;;;;5001734;28;19930;-63
2022/11/16 07:37:39;;;;;;;;;;;20.20;99.90;;;;;;4998313;28;20418;-63
2022/11/16 07:40:07;;;;;;;;;;;20.20;99.90;;;;;;5003704;28;19929;-64
2022/11/16 07:42:36;;;;;;;;;;;20.20;99.90;;;;;;5021308;28;19929;-63
2022/11/16 07:45:12;;;;;;;;;;;20.20;99.90;;;;;;5012311;28;19934;-61
2022/11/16 07:47:51;;;;;;;;;;;20.20;99.90;;;;;;5009197;28;19940;-63
2022/11/16 07:50:29;;;;;;;;;;;20.20;99.90;;;;;;5003643;28;19934;-64
2022/11/16 07:52:57;;;;;;;;;;;20.10;99.90;;;;;;5002223;28;19925;-64
2022/11/16 07:55:25;;;;;;;;;;;20.10;99.90;;;;;;4998666;28;20053;-63
2022/11/16 07:57:52;;;;;;;;;;;20.10;99.90;;;;;;5000735;28;19941;-63
2022/11/16 08:00:21;;;;;;;;;;;20.10;99.90;;;;;;5003215;28;20517;-66
2022/11/16 08:02:57;;;;;;;;;;;20.10;99.90;;;;;;4995623;28;19926;-64
2022/11/16 08:05:25;;;;;;;;;;;20.00;99.90;;;;;;5020678;28;19936;-65
2022/11/16 08:07:53;;;;;;;;;;;19.90;99.90;;;;;;5003481;28;19926;-64
2022/11/16 08:10:23;;;;;;;;;;;19.90;99.90;;;;;;5004406;28;19933;-64
2022/11/16 08:12:50;;;;;;;;;;;19.90;99.90;;;;;;5007991;28;19929;-63
2022/11/16 08:15:20;;;;;;;;;;;19.90;99.90;;;;;;5012717;28;19938;-64
2022/11/16 08:17:49;;;;;;;;;;;19.90;99.90;;;;;;5016717;28;20336;-63
2022/11/16 08:20:16;;;;;;;;;;;19.90;99.90;;;;;;5012643;28;19929;-64
2022/11/16 08:22:44;;;;;;;;;;;19.90;99.90;;;;;;5010380;28;19936;-63
2022/11/16 08:25:21;;;;;;;;;;;19.90;99.90;;;;;;5007168;28;20313;-62
2022/11/16 08:27:52;;;;;;;;;;;19.80;99.90;;;;;;5007599;28;19945;-64
2022/11/16 08:30:20;;;;;;;;;;;19.80;99.90;;;;;;5000692;28;19929;-63
2022/11/16 08:32:47;;;;;;;;;;;19.80;99.90;;;;;;4997420;28;19929;-63
2022/11/16 08:35:15;;;;;;;;;;;19.70;99.90;;;;;;5008575;28;19929;-63
2022/11/16 08:37:45;;;;;;;;;;;19.70;99.90;;;;;;4992711;28;20293;-63
2022/11/16 08:40:13;;;;;;;;;;;19.70;99.90;;;;;;4995858;28;19968;-63
2022/11/16 08:42:41;;;;;;;;;;;19.70;99.90;;;;;;5008134;28;19930;-64
2022/11/16 08:45:11;;;;;;;;;;;19.70;99.90;;;;;;4994784;28;20325;-64
2022/11/16 08:47:38;;;;;;;;;;;19.70;99.90;;;;;;4998845;28;19926;-65
2022/11/16 08:50:07;;;;;;;;;;;19.60;99.90;;;;;;5001346;28;20333;-64
2022/11/16 08:52:34;;;;;;;;;;;19.60;99.90;;;;;;4992972;28;20336;-63
2022/11/16 08:55:03;;;;;;;;;;;19.60;99.90;;;;;;5009048;28;19933;-64
2022/11/16 08:57:31;;;;;;;;;;;19.60;99.90;;;;;;5015795;28;20239;-63
2022/11/16 09:00:03;;;;;;;;;;;19.60;99.90;;;;;;4989842;28;19926;-62
2022/11/16 09:02:30;;;;;;;;;;;19.50;99.90;;;;;;4996901;28;19937;-64
2022/11/16 09:04:57;;;;;;;;;;;19.50;99.90;;;;;;4996677;28;19929;-64
2022/11/16 09:07:24;;;;;;;;;;;19.50;99.90;;;;;;4999355;28;19926;-66
2022/11/16 09:09:51;;;;;;;;;;;19.60;99.90;;;;;;5010852;28;19960;-64
2022/11/16 09:12:18;;;;;;;;;;;19.60;99.90;;;;;;5002861;28;19930;-64
2022/11/16 09:14:46;;;;;;;;;;;19.60;99.90;;;;;;5001141;28;19929;-64
2022/11/16 09:17:13;;;;;;;;;;;19.60;99.90;;;;;;5005697;28;19930;-64
2022/11/16 09:19:46;;;;;;;;;;;19.70;99.90;;;;;;4998881;28;20418;-62
2022/11/16 09:22:13;;;;;;;;;;;19.70;99.90;;;;;;4996062;28;19956;-64
2022/11/16 09:24:40;;;;;;;;;;;19.80;99.90;;;;;;4999424;28;19929;-63
2022/11/16 09:27:07;;;;;;;;;;;19.80;99.90;;;;;;5008484;28;19929;-64
2022/11/16 09:29:34;;;;;;;;;;;19.90;99.90;;;;;;5010998;28;19933;-63
2022/11/16 09:32:03;;;;;;;;;;;20.00;99.90;;;;;;5012090;28;19925;-64
2022/11/16 09:34:30;;;;;;;;;;;20.10;99.90;;;;;;5008509;28;19937;-64
2022/11/16 09:36:57;;;;;;;;;;;20.10;99.90;;;;;;5004769;28;19926;-63
2022/11/16 09:39:24;;;;;;;;;;;20.10;99.90;;;;;;5020451;28;20012;-64
2022/11/16 09:42:00;;;;;;;;;;;20.10;99.90;;;;;;5005698;28;19936;-64
2022/11/16 09:44:27;;;;;;;;;;;20.10;99.90;;;;;;4996779;28;20397;-64
2022/11/16 09:46:56;;;;;;;;;;;20.10;99.90;;;;;;5003210;28;20700;-63
2022/11/16 09:49:41;;;;;;;;;;;20.00;99.90;;;;;;4999025;28;20424;-65
2022/11/16 09:52:12;;;;;;;;;;;20.00;99.90;;;;;;4993709;28;19933;-64
2022/11/16 09:54:40;;;;;;;;;;;20.00;99.90;;;;;;5001901;28;19925;-64
2022/11/16 09:57:10;;;;;;;;;;;20.00;99.90;;;;;;4998207;28;19930;-64
2022/11/16 09:59:45;;;;;;;;;;;20.00;99.90;;;;;;4993018;28;19934;-59
2022/11/16 10:02:18;;;;;;;;;;;20.00;99.90;;;;;;5002767;28;20313;-63
2022/11/16 10:04:46;;;;;;;;;;;20.00;99.90;;;;;;5000476;28;19999;-63
2022/11/16 10:07:13;;;;;;;;;;;20.10;99.90;;;;;;5004959;28;19937;-61
2022/11/16 10:09:41;;;;;;;;;;;20.00;99.90;;;;;;5000831;28;19930;-63
2022/11/16 10:12:17;;;;;;;;;;;20.00;99.90;;;;;;5004774;28;19925;-66
2022/11/16 10:15:05;;;;;;;;;;;20.00;99.90;;;;;;5001179;28;19929;-65
2022/11/16 10:17:44;;;;;;;;;;;20.00;99.90;;;;;;5006131;28;19933;-65
2022/11/16 10:20:14;;;;;;;;;;;20.00;99.90;;;;;;4997523;28;19936;-65
2022/11/16 10:22:52;;;;;;;;;;;20.00;99.90;;;;;;4999071;28;19926;-62
2022/11/16 10:25:26;;;;;;;;;;;20.00;99.90;;;;;;5016265;28;19930;-59
2022/11/16 10:28:05;;;;;;;;;;;20.00;99.90;;;;;;5000520;28;19949;-64
2022/11/16 10:30:35;;;;;;;;;;;20.00;99.90;;;;;;4996604;28;19926;-61
2022/11/16 10:33:08;;;;;;;;;;;19.90;99.90;;;;;;4993624;28;20227;-62
2022/11/16 10:35:39;;;;;;;;;;;19.90;99.90;;;;;;4995013;28;19930;-61
2022/11/16 10:38:14;;;;;;;;;;;19.90;99.90;;;;;;5001106;28;19934;-61
2022/11/16 10:40:43;;;;;;;;;;;19.90;99.90;;;;;;5003114;28;19933;-64
2022/11/16 10:43:13;;;;;;;;;;;19.90;99.90;;;;;;4998674;28;20002;-63
2022/11/16 10:45:59;;;;;;;;;;;19.90;99.90;;;;;;4994126;28;19929;-62
2022/11/16 10:48:49;;;;;;;;;;;19.90;99.90;;;;;;5001998;28;19926;-59
2022/11/16 10:51:17;;;;;;;;;;;19.90;99.90;;;;;;4990337;28;19933;-61
2022/11/16 10:53:44;;;;;;;;;;;19.80;99.90;;;;;;5001491;28;20424;-62
2022/11/16 10:56:18;;;;;;;;;;;19.80;99.90;;;;;;4994826;28;20399;-61
2022/11/16 10:58:54;;;;;;;;;;;19.80;99.90;;;;;;5001245;28;19930;-63
2022/11/16 11:01:27;;;;;;;;;;;19.80;99.90;;;;;;4994278;28;19930;-60
2022/11/16 11:03:54;;;;;;;;;;;19.80;99.90;;;;;;4999818;28;20314;-63
2022/11/16 11:06:23;;;;;;;;;;;19.70;99.90;;;;;;5009651;28;20404;-62
2022/11/16 11:08:50;;;;;;;;;;;19.70;99.90;;;;;;4996174;28;20309;-59
2022/11/16 11:14:11;;;;;;;;;;;19.70;99.90;;;;;;4998736;28;19936;-63
2022/11/16 11:16:40;;;;;;;;;;;19.60;99.90;;;;;;4994638;28;19925;-63
2022/11/16 11:19:17;;;;;;;;;;;19.60;99.90;;;;;;4994323;28;19930;-63
2022/11/16 11:21:45;;;;;;;;;;;19.60;99.90;;;;;;4993012;28;19939;-63
2022/11/16 11:24:15;;;;;;;;;;;19.60;99.90;;;;;;4997436;28;19933;-58
2022/11/16 11:27:02;;;;;;;;;;;19.70;99.90;;;;;;4999924;28;19932;-62
2022/11/16 11:29:30;;;;;;;;;;;19.70;99.90;;;;;;5006189;28;19925;-64
2022/11/16 11:32:05;;;;;;;;;;;19.70;99.90;;;;;;4997312;28;20336;-65
2022/11/16 11:34:43;;;;;;;;;;;19.80;99.90;;;;;;4998935;28;20408;-61
2022/11/16 11:37:31;;;;;;;;;;;19.80;99.90;;;;;;5003031;28;19933;-61
2022/11/16 11:40:17;;;;;;;;;;;19.90;99.90;;;;;;4998942;28;19940;-64
2022/11/16 11:42:52;;;;;;;;;;;19.90;99.90;;;;;;5000423;28;19956;-59
2022/11/16 11:45:22;;;;;;;;;;;20.00;99.90;;;;;;5003255;28;19930;-63
2022/11/16 11:47:52;;;;;;;;;;;20.00;99.90;;;;;;5004738;28;19936;-62
2022/11/16 11:50:25;;;;;;;;;;;20.00;99.90;;;;;;4994306;28;19940;-64
2022/11/16 11:53:11;;;;;;;;;;;20.10;99.90;;;;;;4993772;28;19940;-64
2022/11/16 11:55:38;;;;;;;;;;;20.10;99.90;;;;;;4997274;28;19932;-62
2022/11/16 11:58:06;;;;;;;;;;;20.10;99.90;;;;;;4991426;28;19930;-63
2022/11/16 12:00:53;;;;;;;;;;;20.10;99.90;;;;;;4996271;28;19926;-63
2022/11/16 12:03:30;;;;;;;;;;;20.10;99.90;;;;;;4990315;28;20449;-61
2022/11/16 12:06:00;;;;;;;;;;;20.20;99.90;;;;;;4995486;28;19940;-63
2022/11/16 12:08:33;;;;;;;;;;;20.20;99.90;;;;;;4995892;28;19930;-62
2022/11/16 12:11:20;;;;;;;;;;;20.20;99.90;;;;;;5000207;28;19929;-63
2022/11/16 12:13:51;;;;;;;;;;;20.10;99.90;;;;;;5001639;28;19948;-62
2022/11/16 12:16:24;;;;;;;;;;;20.10;99.90;;;;;;5005933;28;19932;-60
2022/11/16 12:18:51;;;;;;;;;;;20.10;99.90;;;;;;5015720;28;19929;-62
2022/11/16 12:21:37;;;;;;;;;;;20.10;99.90;;;;;;4996576;28;19926;-64
2022/11/16 12:24:07;;;;;;;;;;;20.10;99.90;;;;;;5006250;28;19945;-66
2022/11/16 12:26:42;;;;;;;;;;;20.10;99.90;;;;;;5007503;28;19929;-66
2022/11/16 12:29:29;;;;;;;;;;;20.10;99.90;;;;;;5006524;28;20349;-66
2022/11/16 12:32:24;;;;;;;;;;;20.10;99.90;;;;;;5004689;28;20372;-64
2022/11/16 12:34:57;;;;;;;;;;;20.10;99.90;;;;;;4999343;28;19946;-66
2022/11/16 12:37:32;;;;;;;;;;;20.00;99.90;;;;;;5004168;28;19930;-65
2022/11/16 12:40:18;;;;;;;;;;;20.00;99.90;;;;;;5018990;28;19926;-65
2022/11/16 12:42:48;;;;;;;;;;;20.00;99.90;;;;;;5010658;28;19929;-64
2022/11/16 12:45:19;;;;;;;;;;;20.00;99.90;;;;;;5006472;28;19930;-66
2022/11/16 12:48:09;;;;;;;;;;;20.10;99.90;;;;;;5001599;28;20005;-64
2022/11/16 12:50:47;;;;;;;;;;;20.20;99.90;;;;;;4975660;28;19940;-66
2022/11/16 12:53:24;;;;;;;;;;;20.30;99.90;;;;;;4998287;28;19944;-66
2022/11/16 12:55:51;;;;;;;;;;;19.90;99.90;;;;;;4999603;28;19937;-66
2022/11/16 12:58:23;;;;;;;;;;;19.40;99.90;;;;;;5001347;28;19929;-65
2022/11/16 13:01:02;;;;;;;;;;;19.00;99.90;;;;;;5016609;28;19930;-66
2022/11/16 13:03:36;;;;;;;;;;;18.80;99.90;;;;;;5004613;28;19956;-65
2022/11/16 13:06:06;;;;;;;;;;;18.60;99.90;;;;;;4994016;28;20420;-65
2022/11/16 13:08:51;;;;;;;;;;;18.70;99.90;;;;;;5005749;28;19925;-66
2022/11/16 13:11:24;;;;;;;;;;;19.10;99.90;;;;;;4998213;28;20345;-65
2022/11/16 13:13:55;;;;;;;;;;;19.40;99.90;;;;;;4998347;28;19925;-64
2022/11/16 13:16:23;;;;;;;;;;;19.60;99.90;;;;;;5002254;28;19958;-66
2022/11/16 13:18:50;;;;;;;;;;;19.70;99.90;;;;;;5007779;28;19929;-64
2022/11/16 13:21:27;;;;;;;;;;;19.80;99.90;;;;;;5002663;28;19936;-64
2022/11/16 13:23:57;;;;;;;;;;;19.90;99.90;;;;;;5015830;28;19932;-67
2022/11/16 13:26:31;;;;;;;;;;;19.90;99.90;;;;;;4994860;28;19934;-65
2022/11/16 13:29:13;;;;;;;;;;;19.90;99.90;;;;;;5000663;28;19934;-64
2022/11/16 13:31:45;;;;;;;;;;;19.90;99.90;;;;;;5007695;28;19944;-68
2022/11/16 13:34:14;;;;;;;;;;;19.80;99.90;;;;;;5001845;28;20014;-64
2022/11/16 13:36:43;;;;;;;;;;;19.70;99.90;;;;;;5002252;28;19933;-64
2022/11/16 13:39:15;;;;;;;;;;;19.40;99.90;;;;;;5009359;28;19930;-64
2022/11/16 13:42:04;;;;;;;;;;;19.20;99.90;;;;;;5000568;28;19941;-66
2022/11/16 13:44:32;;;;;;;;;;;19.10;99.90;;;;;;5006302;28;19925;-66
2022/11/16 13:47:04;;;;;;;;;;;19.40;99.90;;;;;;5005422;28;19936;-66
2022/11/16 13:49:33;;;;;;;;;;;19.60;99.90;;;;;;4995695;28;19930;-66
2022/11/16 13:52:02;;;;;;;;;;;19.70;99.90;;;;;;4996098;28;20456;-66
2022/11/16 13:54:51;;;;;;;;;;;19.70;99.90;;;;;;5002969;28;20314;-66
2022/11/16 13:57:24;;;;;;;;;;;19.70;99.90;;;;;;4998078;28;19930;-67
2022/11/16 14:00:00;;;;;;;;;;;19.70;99.90;;;;;;5001168;28;20317;-65
2022/11/16 14:02:40;;;;;;;;;;;19.70;99.90;;;;;;4998960;28;20445;-66
2022/11/16 14:05:26;;;;;;;;;;;19.80;99.90;;;;;;5002194;28;19929;-66
2022/11/16 14:07:53;;;;;;;;;;;19.80;99.90;;;;;;4995437;28;19929;-67
2022/11/16 14:10:32;;;;;;;;;;;19.80;99.90;;;;;;5001637;28;19929;-67
2022/11/16 14:13:00;;;;;;;;;;;19.80;99.90;;;;;;5012605;28;20393;-65
2022/11/16 14:15:34;;;;;;;;;;;19.90;99.90;;;;;;5003796;28;19933;-65
2022/11/16 14:18:08;;;;;;;;;;;19.80;99.90;;;;;;5008827;28;19926;-65
2022/11/16 14:20:55;;;;;;;;;;;19.90;99.90;;;;;;4997396;28;19930;-68
2022/11/16 14:23:25;;;;;;;;;;;19.90;99.90;;;;;;4996717;28;19930;-65
2022/11/16 14:26:01;;;;;;;;;;;19.90;99.90;;;;;;4995749;28;19930;-66
2022/11/16 14:28:36;;;;;;;;;;;20.00;99.90;;;;;;4999572;28;19936;-66
2022/11/16 14:31:13;;;;;;;;;;;20.00;99.90;;;;;;4997363;28;20397;-65
2022/11/16 14:33:40;;;;;;;;;;;20.00;99.90;;;;;;4998299;28;19930;-64
2022/11/16 14:36:08;;;;;;;;;;;20.00;99.90;;;;;;4995820;28;19940;-65
2022/11/16 14:38:37;;;;;;;;;;;20.10;99.90;;;;;;4999282;28;19934;-65
2022/11/16 14:41:06;;;;;;;;;;;20.00;99.90;;;;;;4993210;28;20421;-65
2022/11/16 14:43:37;;;;;;;;;;;20.00;99.90;;;;;;4998339;28;19926;-66
2022/11/16 14:46:06;;;;;;;;;;;20.00;99.90;;;;;;5008801;28;19930;-66
2022/11/16 14:48:33;;;;;;;;;;;20.00;99.90;;;;;;4999910;28;19933;-63
2022/11/16 14:51:03;;;;;;;;;;;20.00;99.90;;;;;;5003910;28;20284;-64
2022/11/16 14:53:32;;;;;;;;;;;20.00;99.90;;;;;;4999996;28;19936;-64
2022/11/16 14:56:07;;;;;;;;;;;20.00;99.90;;;;;;5001583;28;19932;-66
2022/11/16 14:58:35;;;;;;;;;;;19.90;99.90;;;;;;4999240;28;19945;-63
2022/11/16 15:01:03;;;;;;;;;;;19.90;99.90;;;;;;4998545;28;19926;-65
2022/11/16 15:03:32;;;;;;;;;;;19.90;99.90;;;;;;5000531;28;19934;-64
2022/11/16 15:06:01;;;;;;;;;;;19.90;99.90;;;;;;5007931;28;20416;-65
2022/11/16 15:08:34;;;;;;;;;;;20.00;99.90;;;;;;4999083;28;19941;-65
2022/11/16 15:11:01;;;;;;;;;;;20.00;99.90;;;;;;5005915;28;20416;-64
2022/11/16 15:13:28;;;;;;;;;;;20.00;99.90;;;;;;4999766;28;19930;-66
2022/11/16 15:16:09;;;;;;;;;;;20.00;99.90;;;;;;5005538;28;19934;-64
2022/11/16 15:18:37;;;;;;;;;;;20.10;99.90;;;;;;5000683;28;20302;-68
2022/11/16 15:21:05;;;;;;;;;;;20.20;99.90;;;;;;5004698;28;19936;-64